createdAt,value
2023-05-17T06:21:39.891Z,100.00
2023-05-17T06:31:40.068Z,95.59
2023-05-17T06:41:39.915Z,84.31
2023-05-17T06:51:39.870Z,81.56
2023-05-17T07:01:40.236Z,76.98
2023-05-17T07:11:39.988Z,78.14
2023-05-17T07:21:40.073Z,78.92
2023-05-17T07:31:39.919Z,79.33
2023-05-17T07:41:39.999Z,81.60
2023-05-17T07:51:39.874Z,79.82
2023-05-17T08:01:40.142Z,73.36
2023-05-17T08:11:39.952Z,75.37
2023-05-17T08:21:40.161Z,75.92
2023-05-17T08:31:39.942Z,75.18
2023-05-17T08:41:40.098Z,76.98
2023-05-17T08:51:40.338Z,76.16
2023-05-17T09:01:40.417Z,76.07
2023-05-17T09:11:40.577Z,68.98
2023-05-17T09:21:40.557Z,65.96
2023-05-17T09:31:40.529Z,67.31
2023-05-17T09:41:40.680Z,65.21
2023-05-17T09:51:40.540Z,61.13
2023-05-17T10:01:40.502Z,59.66
2023-05-17T10:11:40.592Z,58.92
2023-05-17T10:21:40.429Z,57.66
2023-05-17T10:31:40.406Z,57.83
2023-05-17T10:41:40.371Z,56.71
2023-05-17T10:51:40.424Z,53.96
2023-05-17T11:01:41.786Z,57.45
2023-05-17T11:11:40.358Z,58.39
2023-05-17T11:21:40.640Z,57.91
2023-05-17T11:31:40.589Z,56.83
2023-05-17T11:41:40.660Z,56.78
2023-05-17T11:51:40.521Z,55.06
2023-05-17T12:01:40.368Z,53.77
2023-05-17T12:11:40.572Z,56.46
2023-05-17T12:21:40.504Z,55.49
2023-05-17T12:31:40.364Z,55.63
2023-05-17T12:41:40.768Z,52.14
2023-05-17T12:51:40.491Z,52.99
2023-05-17T13:01:40.472Z,54.22
2023-05-17T13:11:40.542Z,55.01
2023-05-17T13:21:40.609Z,52.71
2023-05-17T13:31:40.788Z,53.90
2023-05-17T13:41:40.642Z,53.97
2023-05-17T13:51:40.591Z,53.82
2023-05-17T14:01:41.480Z,55.17
2023-05-17T14:11:40.541Z,53.15
2023-05-17T14:21:40.581Z,55.86
2023-05-17T14:31:41.692Z,54.73
2023-05-17T14:41:42.850Z,54.37
2023-05-17T14:51:40.596Z,55.67
2023-05-17T15:01:40.545Z,58.18
2023-05-17T15:11:40.707Z,55.12
2023-05-17T15:21:40.577Z,52.77
2023-05-17T15:31:40.527Z,51.93
2023-05-17T15:41:40.605Z,51.96
2023-05-17T15:51:40.777Z,52.17
2023-05-17T16:01:40.833Z,52.20
2023-05-17T16:11:40.695Z,53.17
2023-05-17T16:21:40.654Z,53.46
2023-05-17T16:31:40.650Z,54.67
2023-05-17T16:41:40.907Z,55.31
2023-05-17T16:51:40.779Z,57.56
2023-05-17T17:01:40.663Z,58.73
2023-05-17T17:11:40.698Z,59.30
2023-05-17T17:21:40.748Z,57.35
2023-05-17T17:31:40.810Z,59.05
2023-05-17T17:41:40.899Z,59.12
2023-05-17T17:51:40.972Z,60.88
2023-05-17T18:01:41.024Z,60.53
2023-05-17T18:11:40.881Z,61.34
2023-05-17T18:21:40.835Z,62.99
2023-05-17T18:31:40.749Z,64.38
2023-05-17T18:41:40.885Z,65.85
2023-05-17T18:51:41.132Z,66.88
2023-05-17T19:01:41.209Z,69.07
2023-05-17T19:11:41.375Z,70.33
2023-05-17T19:21:41.561Z,72.45
